Time;durP1;ratioP1;P1;durP2;ratioP2;P2;SDS_P1;SDS_P2;PMS_P1;PMS_P2;Temp;Humidity;BMP_temperature;BMP_pressure;BME280_temperature;BME280_humidity;BME280_pressure;Samples;Min_cycle;Max_cycle;Signal;HPM_P1;HPM_P2
2022/04/18 00:01:47;;;;;;;8.68;5.00;;;;;;;5.43;33.04;102286.94;5025072;28;20158;-78
2022/04/18 00:04:13;;;;;;;9.70;5.40;;;;;;;5.47;32.85;102285.25;5040715;28;20411;-78
2022/04/18 00:06:38;;;;;;;7.78;4.70;;;;;;;5.49;32.85;102280.94;5028483;28;20114;-80
2022/04/18 00:09:05;;;;;;;6.72;4.43;;;;;;;5.43;32.91;102288.69;5056438;28;20120;-76
2022/04/18 00:11:31;;;;;;;9.88;4.95;;;;;;;5.38;33.19;102278.28;5043530;28;20029;-78
2022/04/18 00:13:57;;;;;;;9.25;5.07;;;;;;;5.34;33.15;102276.53;5056272;28;20037;-78
2022/04/18 00:16:23;;;;;;;9.30;5.10;;;;;;;5.31;33.30;102270.50;5041312;28;20032;-78
2022/04/18 00:18:49;;;;;;;8.75;4.82;;;;;;;5.31;33.17;102278.28;5040892;28;20684;-78
2022/04/18 00:21:14;;;;;;;6.93;5.07;;;;;;;5.32;33.10;102282.59;5041497;28;20036;-79
2022/04/18 00:23:40;;;;;;;8.55;5.97;;;;;;;5.29;33.06;102282.59;5026492;28;20074;-79
2022/04/18 00:26:05;;;;;;;9.77;5.00;;;;;;;5.25;33.39;102274.78;5041823;28;20048;-78
2022/04/18 00:28:31;;;;;;;8.57;4.60;;;;;;;5.25;33.14;102272.19;5027876;28;20083;-78
2022/04/18 00:31:00;;;;;;;11.02;5.35;;;;;;;5.15;33.03;102275.59;5056211;28;20033;-80
2022/04/18 00:33:26;;;;;;;6.88;4.53;;;;;;;5.11;33.41;102267.81;5024685;28;20045;-78
2022/04/18 00:35:52;;;;;;;10.38;5.35;;;;;;;5.10;33.70;102266.94;5023049;28;20075;-79
2022/04/18 00:38:21;;;;;;;9.38;5.35;;;;;;;5.09;33.20;102269.53;5025980;28;20041;-78
2022/04/18 00:40:47;;;;;;;10.20;5.38;;;;;;;5.01;33.80;102262.56;5040743;28;20028;-80
2022/04/18 00:43:13;;;;;;;9.60;4.93;;;;;;;4.98;33.82;102261.69;5022634;28;20036;-79
2022/04/18 00:45:39;;;;;;;11.77;5.85;;;;;;;4.99;33.02;102260.84;5044491;28;20048;-78
2022/04/18 00:48:04;;;;;;;12.55;5.78;;;;;;;4.94;33.79;102249.56;5055549;28;20037;-78
2022/04/18 00:50:32;;;;;;;8.55;5.43;;;;;;;4.93;33.36;102250.44;5059048;28;20911;-80
2022/04/18 00:52:58;;;;;;;9.90;5.43;;;;;;;5.04;33.08;102251.34;5052663;28;20045;-78
2022/04/18 00:55:26;;;;;;;11.20;5.68;;;;;;;5.04;33.10;102247.03;5043032;28;20070;-79
2022/04/18 00:57:54;;;;;;;10.15;6.38;;;;;;;4.95;33.36;102243.53;5038771;28;20045;-80
2022/04/18 01:00:21;;;;;;;16.67;5.80;;;;;;;4.88;33.16;102245.22;5041928;28;20075;-79
2022/04/18 01:02:46;;;;;;;10.70;7.00;;;;;;;4.94;33.56;102244.38;5040102;28;20049;-79
2022/04/18 01:05:12;;;;;;;9.90;5.47;;;;;;;4.93;33.44;102237.47;5026086;28;20036;-79
2022/04/18 01:07:38;;;;;;;14.73;6.45;;;;;;;4.88;33.18;102236.56;5024115;28;20112;-79
2022/04/18 01:10:05;;;;;;;9.10;6.05;;;;;;;4.84;33.22;102235.66;5039091;28;20410;-78
2022/04/18 01:12:30;;;;;;;10.18;5.72;;;;;;;4.87;33.17;102240.00;5023848;28;20051;-79
2022/04/18 01:15:31;;;;;;;12.60;6.38;;;;;;;4.84;33.63;102233.06;5024159;28;20037;-77
2022/04/18 01:18:23;;;;;;;14.85;6.68;;;;;;;4.74;33.47;102226.94;5037940;28;20131;-79
2022/04/18 01:21:18;;;;;;;12.32;6.38;;;;;;;4.78;33.80;102227.84;5039785;28;20120;-79
2022/04/18 01:23:59;;;;;;;12.18;5.70;;;;;;;4.79;33.69;102221.84;5038486;28;20037;-79
2022/04/18 01:29:29;;;;;;;12.18;6.57;;;;;;;4.61;33.81;102220.00;5040721;28;20067;-77
2022/04/18 01:31:54;;;;;;;13.23;6.85;;;;;;;4.77;33.62;102221.81;5023071;28;20573;-77
2022/04/18 01:34:21;;;;;;;12.98;7.60;;;;;;;4.86;33.61;102214.97;5041284;28;20033;-79
2022/04/18 01:36:47;;;;;;;11.45;5.97;;;;;;;4.82;33.58;102216.66;5022867;28;20566;-77
2022/04/18 01:39:14;;;;;;;12.40;7.00;;;;;;;4.82;33.64;102214.91;5023597;28;20029;-79
2022/04/18 01:41:39;;;;;;;10.52;6.35;;;;;;;4.81;33.67;102217.50;5023267;28;20037;-78
2022/04/18 01:44:07;;;;;;;10.80;6.40;;;;;;;4.78;33.55;102213.16;5056549;28;20136;-79
2022/04/18 01:46:33;;;;;;;17.40;7.90;;;;;;;4.82;34.12;102209.75;5023162;28;20116;-79
2022/04/18 01:48:59;;;;;;;12.70;7.13;;;;;;;4.79;33.98;102208.88;5020891;28;20041;-77
2022/04/18 01:51:25;;;;;;;12.88;6.95;;;;;;;4.75;34.07;102210.56;5024336;28;20567;-77
2022/04/18 01:53:50;;;;;;;9.65;7.13;;;;;;;4.73;34.18;102209.69;5021651;28;20047;-78
2022/04/18 01:56:16;;;;;;;11.32;6.40;;;;;;;4.72;34.32;102205.38;5040547;28;20483;-80
2022/04/18 01:58:42;;;;;;;9.98;6.75;;;;;;;4.69;34.50;102205.34;5039500;28;20048;-78
2022/04/18 02:01:08;;;;;;;13.60;6.88;;;;;;;4.58;34.64;102205.28;5055623;28;20408;-78
2022/04/18 02:03:33;;;;;;;12.95;7.22;;;;;;;4.65;34.35;102211.38;5021514;28;20048;-79
2022/04/18 02:05:59;;;;;;;12.40;6.53;;;;;;;4.65;34.37;102206.19;5023567;28;20052;-78
2022/04/18 02:08:26;;;;;;;15.70;7.60;;;;;;;4.59;34.50;102203.56;5021425;28;20060;-79
2022/04/18 02:10:53;;;;;;;16.25;7.22;;;;;;;4.42;35.16;102203.44;5039995;28;20044;-78
2022/04/18 02:13:28;;;;;;;12.55;7.63;;;;;;;4.55;34.95;102202.69;5053651;28;20571;-78
2022/04/18 02:15:59;;;;;;;11.88;6.55;;;;;;;4.55;35.14;102199.22;5022780;28;20045;-78
2022/04/18 02:18:24;;;;;;;16.65;7.40;;;;;;;4.51;34.81;102202.66;5030649;28;20118;-79
2022/04/18 02:20:51;;;;;;;16.17;7.20;;;;;;;4.50;35.25;102200.91;5026563;28;20080;-77
2022/04/18 02:23:16;;;;;;;16.55;7.70;;;;;;;4.51;35.12;102197.47;5024497;28;20529;-78
2022/04/18 02:25:42;;;;;;;10.73;6.75;;;;;;;4.43;35.05;102195.72;5025637;28;20045;-77
2022/04/18 02:28:13;;;;;;;13.20;7.30;;;;;;;4.39;35.15;102190.50;5012061;28;20047;-79
2022/04/18 02:30:47;;;;;;;12.18;6.80;;;;;;;4.40;35.25;102187.91;5028340;28;20064;-78
2022/04/18 02:33:13;;;;;;;12.43;6.30;;;;;;;4.48;35.10;102189.69;5039254;28;20083;-79
2022/04/18 02:35:39;;;;;;;16.67;7.63;;;;;;;4.32;35.41;102189.59;5025126;28;20124;-78
2022/04/18 02:38:05;;;;;;;14.25;7.68;;;;;;;4.34;35.45;102185.28;5057008;28;20131;-80
2022/04/18 02:40:37;;;;;;;15.23;7.70;;;;;;;4.48;35.02;102181.94;5030030;28;20429;-77
2022/04/18 02:43:04;;;;;;;13.85;7.40;;;;;;;4.47;35.22;102181.03;5058447;28;20109;-81
2022/04/18 02:45:31;;;;;;;16.83;7.85;;;;;;;4.36;35.40;102178.41;5026281;28;20457;-79
2022/04/18 02:48:15;;;;;;;11.15;6.13;;;;;;;4.40;35.35;102174.97;5003875;28;20036;-78
2022/04/18 02:50:44;;;;;;;13.85;7.90;;;;;;;4.30;35.91;102173.19;5039349;28;20036;-76
2022/04/18 02:53:11;;;;;;;15.30;7.50;;;;;;;4.23;36.05;102176.59;5033764;28;20056;-78
2022/04/18 02:55:45;;;;;;;14.85;7.70;;;;;;;4.18;36.16;102173.06;5039809;28;20037;-79
2022/04/18 02:58:11;;;;;;;12.70;7.95;;;;;;;4.12;36.34;102175.59;5015327;28;20044;-80
2022/04/18 03:00:36;;;;;;;13.13;7.65;;;;;;;4.14;36.15;102171.31;5027298;28;20035;-79
2022/04/18 03:03:02;;;;;;;18.83;7.20;;;;;;;4.13;36.03;102169.59;5036788;28;20067;-79
2022/04/18 03:05:29;;;;;;;12.65;6.15;;;;;;;4.11;35.91;102171.31;5024330;28;20029;-79
2022/04/18 03:07:56;;;;;;;14.60;7.90;;;;;;;4.15;36.11;102158.41;5020829;28;20048;-78
2022/04/18 03:11:02;;;;;;;10.55;6.50;;;;;;;4.14;36.88;102163.56;5055439;28;20029;-78
2022/04/18 03:13:09;;;;;;;12.85;7.63;;;;;;;4.08;36.84;102160.94;5032731;28;20136;-79
2022/04/18 03:15:34;;;;;;;11.85;6.72;;;;;;;4.06;36.95;102158.34;5026466;28;20144;-80
2022/04/18 03:18:00;;;;;;;17.05;7.47;;;;;;;4.04;37.38;102151.41;5037065;28;21025;-80
2022/04/18 03:20:26;;;;;;;17.73;7.35;;;;;;;3.91;37.13;102153.88;5038852;28;20025;-78
2022/04/18 03:22:52;;;;;;;18.05;7.50;;;;;;;3.86;37.14;102147.81;5023331;28;20386;-78
2022/04/18 03:25:32;;;;;;;17.35;7.90;;;;;;;3.86;36.94;102145.22;5058135;28;20112;-79
2022/04/18 03:27:58;;;;;;;24.45;7.68;;;;;;;3.88;36.62;102138.34;5052741;28;20694;-80
2022/04/18 03:30:23;;;;;;;12.68;6.35;;;;;;;3.93;36.50;102141.84;5038526;28;20036;-79
2022/04/18 03:32:49;;;;;;;12.35;7.50;;;;;;;3.94;36.72;102137.53;5023187;28;20044;-79
2022/04/18 03:35:14;;;;;;;14.95;7.07;;;;;;;3.88;36.78;102143.53;5038058;28;20025;-79
2022/04/18 03:40:24;;;;;;;12.90;6.95;;;;;;;3.86;36.72;102136.63;5054848;28;20102;-80
2022/04/18 03:42:50;;;;;;;12.38;7.88;;;;;;;3.85;36.70;102143.53;5051979;28;20037;-78
2022/04/18 03:45:16;;;;;;;13.73;8.13;;;;;;;3.78;36.85;102139.13;5021248;28;20033;-77
2022/04/18 03:47:41;;;;;;;14.52;7.53;;;;;;;3.75;36.98;102133.94;5021174;28;20053;-78
2022/04/18 03:50:08;;;;;;;12.80;7.65;;;;;;;3.76;36.58;102130.47;5053855;28;20035;-78
2022/04/18 03:52:37;;;;;;;13.93;7.10;;;;;;;3.79;37.05;102133.97;5024044;28;20067;-77
2022/04/18 03:55:05;;;;;;;13.10;7.15;;;;;;;3.76;37.10;102131.38;5053166;28;20151;-76
2022/04/18 03:57:35;;;;;;;16.90;7.72;;;;;;;3.74;37.25;102135.66;5038324;28;20562;-78
2022/04/18 04:00:08;;;;;;;12.60;7.30;;;;;;;3.74;36.94;102134.81;5039272;28;20112;-78
2022/04/18 04:02:39;;;;;;;16.40;7.95;;;;;;;3.68;37.09;102134.75;5036646;28;20304;-79
2022/04/18 04:05:06;;;;;;;14.13;6.88;;;;;;;3.68;37.20;102126.97;5053335;28;20090;-77
2022/04/18 04:07:32;;;;;;;15.35;7.20;;;;;;;3.67;36.91;102127.81;5025564;28;20439;-79
2022/04/18 04:10:13;;;;;;;20.52;7.90;;;;;;;3.65;37.19;102132.09;5022813;28;20095;-79
2022/04/18 04:12:39;;;;;;;11.57;6.38;;;;;;;3.67;37.34;102133.00;5027654;28;20454;-78
2022/04/18 04:15:30;;;;;;;12.63;6.63;;;;;;;3.66;37.11;102126.09;5055290;28;20233;-79
2022/04/18 04:18:03;;;;;;;15.63;6.55;;;;;;;3.68;37.31;102120.09;5022961;28;20037;-77
2022/04/18 04:20:28;;;;;;;13.95;7.25;;;;;;;3.68;37.38;102127.84;5025221;28;20094;-79
2022/04/18 04:22:54;;;;;;;14.30;6.07;;;;;;;3.69;37.15;102123.53;5056811;28;20037;-78
2022/04/18 04:25:39;;;;;;;14.40;6.63;;;;;;;3.69;37.22;102124.38;5026407;28;20439;-80
2022/04/18 04:28:09;;;;;;;19.08;7.13;;;;;;;3.57;37.63;102124.28;5043230;28;20053;-78
2022/04/18 04:30:35;;;;;;;14.35;6.88;;;;;;;3.64;37.48;102122.63;5057639;28;20033;-78
2022/04/18 04:33:04;;;;;;;15.52;6.78;;;;;;;3.27;38.36;102123.13;5022502;28;20072;-77
2022/04/18 04:35:29;;;;;;;11.43;5.85;;;;;;;3.54;37.95;102129.44;5026825;28;20059;-77
2022/04/18 04:38:10;;;;;;;9.70;6.65;;;;;;;3.71;37.37;102124.41;5023363;28;20612;-80
2022/04/18 04:40:44;;;;;;;13.15;6.55;;;;;;;3.61;37.92;102115.72;5026015;28;20044;-78
2022/04/18 04:43:11;;;;;;;13.15;7.47;;;;;;;3.59;37.59;102115.69;5040892;28;20137;-79
2022/04/18 04:45:41;;;;;;;12.25;6.55;;;;;;;3.61;37.72;102115.72;5054764;28;20033;-79
2022/04/18 04:48:22;;;;;;;11.80;6.30;;;;;;;3.53;37.93;102112.19;5024945;28;20037;-78
2022/04/18 04:50:52;;;;;;;13.05;6.00;;;;;;;3.56;37.92;102118.25;5025857;28;20052;-79
2022/04/18 04:53:18;;;;;;;15.52;7.03;;;;;;;3.66;37.76;102121.78;5023590;28;20041;-78
2022/04/18 04:55:45;;;;;;;13.55;6.97;;;;;;;3.69;37.76;102116.63;5039446;28;20033;-79
2022/04/18 04:58:11;;;;;;;16.80;8.32;;;;;;;3.81;37.35;102126.22;5023627;28;20044;-79
2022/04/18 05:00:52;;;;;;;17.58;6.88;;;;;;;3.88;37.33;102119.41;5056644;28;20461;-78
2022/04/18 05:03:39;;;;;;;9.82;6.18;;;;;;;3.88;37.54;102119.41;5041580;28;20171;-79
2022/04/18 05:06:07;;;;;;;14.00;6.47;;;;;;;3.91;37.48;102122.00;5025566;28;20116;-77
2022/04/18 05:08:44;;;;;;;14.93;6.47;;;;;;;3.74;37.62;102120.16;5043476;28;20049;-78
2022/04/18 05:11:11;;;;;;;13.25;6.18;;;;;;;3.78;37.64;102121.03;5040591;28;20110;-80
2022/04/18 05:13:47;;;;;;;13.55;6.50;;;;;;;3.87;37.73;102115.06;5042539;28;20041;-79
2022/04/18 05:16:15;;;;;;;14.93;6.95;;;;;;;3.90;37.56;102112.50;5041177;28;20088;-79
2022/04/18 05:19:04;;;;;;;14.48;6.60;;;;;;;4.43;36.68;102118.03;5030103;28;20045;-80
2022/04/18 05:21:30;;;;;;;16.88;7.90;;;;;;;6.93;32.18;102107.78;5027915;28;20848;-79
2022/04/18 05:24:01;;;;;;;15.57;6.32;;;;;;;9.21;28.22;102107.38;5023569;28;20056;-79
2022/04/18 05:26:28;;;;;;;12.38;6.03;;;;;;;10.58;26.56;102098.03;5041600;28;20416;-79
2022/04/18 05:28:54;;;;;;;15.32;7.45;;;;;;;10.86;25.54;102096.63;5025077;28;20106;-80
2022/04/18 05:31:21;;;;;;;13.10;6.45;;;;;;;11.16;25.51;102106.41;5043419;28;20040;-79
2022/04/18 05:33:49;;;;;;;19.95;7.32;;;;;;;11.25;24.49;102106.19;5045466;28;20052;-78
2022/04/18 05:36:25;;;;;;;12.18;6.35;;;;;;;12.02;24.06;102103.44;5063085;28;20630;-79
2022/04/18 05:38:51;;;;;;;16.35;7.32;;;;;;;13.03;22.86;102099.75;5040828;28;20047;-79
2022/04/18 05:41:22;;;;;;;16.40;6.65;;;;;;;14.22;21.71;102102.78;5058286;28;20046;-79
2022/04/18 05:43:50;;;;;;;12.38;7.57;;;;;;;14.17;21.42;102096.84;5055491;28;20045;-80
2022/04/18 05:46:20;;;;;;;14.15;6.35;;;;;;;14.65;21.01;102101.22;5074744;28;20328;-79
2022/04/18 05:48:46;;;;;;;13.32;6.30;;;;;;;14.59;20.87;102098.84;5027557;28;20075;-81
2022/04/18 05:51:12;;;;;;;13.57;7.65;;;;;;;14.63;21.00;102100.41;5026214;28;20618;-80
2022/04/18 05:53:39;;;;;;;12.68;6.20;;;;;;;16.21;19.80;102101.03;5054746;28;20596;-81
2022/04/18 05:56:10;;;;;;;12.85;7.28;;;;;;;16.97;18.60;102096.69;5041265;28;20102;-79
2022/04/18 05:58:45;;;;;;;10.07;6.78;;;;;;;16.96;18.94;102102.06;5037620;28;20044;-78
2022/04/18 06:01:29;;;;;;;13.05;6.50;;;;;;;17.27;18.33;102100.53;5057709;28;20086;-80
2022/04/18 06:03:56;;;;;;;11.52;6.95;;;;;;;16.41;19.61;102098.38;5040195;28;20052;-80
2022/04/18 06:06:23;;;;;;;13.40;6.95;;;;;;;15.23;20.02;102106.03;5028336;28;20056;-82
2022/04/18 06:08:48;;;;;;;12.23;6.95;;;;;;;15.21;20.31;102101.72;5024859;28;20152;-78
2022/04/18 06:11:20;;;;;;;14.23;6.97;;;;;;;15.36;20.45;102104.59;5032761;28;20549;-81
2022/04/18 06:14:08;;;;;;;10.10;7.07;;;;;;;15.14;20.57;102099.31;5029273;28;20132;-79
2022/04/18 06:16:37;;;;;;;15.27;7.80;;;;;;;15.58;20.41;102094.03;5044391;28;20104;-80
2022/04/18 06:19:03;;;;;;;16.33;7.35;;;;;;;16.03;20.52;102102.72;5037891;28;20029;-77
2022/04/18 06:21:29;;;;;;;13.15;6.80;;;;;;;16.41;19.86;102095.72;5027718;28;20025;-78
2022/04/18 06:23:55;;;;;;;12.93;6.82;;;;;;;16.32;20.44;102103.22;5037706;28;20041;-75
2022/04/18 06:26:41;;;;;;;12.23;7.28;;;;;;;16.36;19.96;102103.00;5042144;28;20903;-78
2022/04/18 06:29:07;;;;;;;10.63;6.63;;;;;;;16.95;20.06;102097.69;5022568;28;20045;-78
2022/04/18 06:31:35;;;;;;;10.60;6.13;;;;;;;17.58;19.06;102095.50;5026980;28;20119;-78
2022/04/18 06:34:03;;;;;;;11.25;6.28;;;;;;;18.08;18.74;102098.25;5037384;28;20041;-78
2022/04/18 06:36:30;;;;;;;11.18;5.82;;;;;;;18.58;17.71;102107.94;5040663;28;20134;-79
2022/04/18 06:39:16;;;;;;;11.55;6.05;;;;;;;18.64;18.12;102104.97;5039275;28;20101;-79
2022/04/18 06:41:41;;;;;;;10.57;5.93;;;;;;;18.70;17.54;102104.63;5038891;28;20127;-77
2022/04/18 06:44:07;;;;;;;12.95;5.93;;;;;;;18.37;17.91;102107.31;5024723;28;20025;-78
2022/04/18 06:46:49;;;;;;;11.77;5.45;;;;;;;16.29;19.82;102106.84;5021481;28;20547;-78
2022/04/18 06:49:28;;;;;;;8.85;5.50;;;;;;;17.26;19.24;102110.25;5025751;28;20344;-79
2022/04/18 06:52:22;;;;;;;8.13;4.85;;;;;;;17.91;18.57;102105.25;5038427;28;20127;-79
2022/04/18 06:55:22;;;;;;;13.27;5.85;;;;;;;18.52;17.92;102103.84;4984356;28;20038;-79
2022/04/18 06:57:50;;;;;;;11.27;5.70;;;;;;;19.42;17.63;102097.91;5016853;28;20041;-78
2022/04/18 07:00:16;;;;;;;8.43;5.28;;;;;;;20.25;17.00;102098.28;5037791;28;20037;-78
2022/04/18 07:02:46;;;;;;;10.45;5.65;;;;;;;19.81;16.84;102096.50;5022946;28;21071;-79
2022/04/18 07:05:12;;;;;;;9.40;5.68;;;;;;;20.86;16.78;102093.56;5054625;28;20056;-80
2022/04/18 07:07:37;;;;;;;8.50;5.28;;;;;;;20.20;16.66;102097.69;5037420;28;20063;-78
2022/04/18 07:10:04;;;;;;;7.95;4.70;;;;;;;19.34;17.08;102091.34;5053898;28;20025;-80
2022/04/18 07:12:30;;;;;;;9.48;5.65;;;;;;;19.40;17.23;102093.66;5021540;28;20707;-77
2022/04/18 07:14:58;;;;;;;7.95;5.07;;;;;;;19.48;17.24;102086.09;5020860;28;20075;-80
2022/04/18 07:17:25;;;;;;;10.57;5.32;;;;;;;19.61;17.53;102084.44;5051925;28;20045;-78
2022/04/18 07:19:55;;;;;;;8.25;4.80;;;;;;;19.57;16.97;102090.88;5020035;28;20514;-78
2022/04/18 07:22:23;;;;;;;8.00;5.22;;;;;;;18.93;17.44;102089.28;5037819;28;20434;-78
2022/04/18 07:24:52;;;;;;;9.95;5.03;;;;;;;19.23;17.73;102098.13;5029303;28;20096;-78
2022/04/18 07:27:21;;;;;;;6.18;4.28;;;;;;;19.80;17.59;102093.97;5037080;28;20052;-80
2022/04/18 07:29:55;;;;;;;9.85;5.07;;;;;;;20.33;16.86;102088.03;5020311;28;20037;-79
2022/04/18 07:32:21;;;;;;;11.43;5.35;;;;;;;19.60;17.30;102093.34;5033922;28;20045;-80
2022/04/18 07:34:47;;;;;;;6.95;4.72;;;;;;;19.71;17.37;102090.91;5021728;28;20124;-80
2022/04/18 07:37:22;;;;;;;9.07;4.90;;;;;;;19.63;17.65;102087.84;5023876;28;20052;-79
2022/04/18 07:39:49;;;;;;;8.70;5.75;;;;;;;20.77;17.10;102086.16;5020219;28;20643;-79
2022/04/18 07:42:14;;;;;;;9.63;5.05;;;;;;;20.64;16.50;102087.88;5051248;28;20485;-79
2022/04/18 07:44:41;;;;;;;7.45;4.38;;;;;;;20.49;16.75;102087.94;5052419;28;20049;-78
2022/04/18 07:47:08;;;;;;;6.15;4.03;;;;;;;21.02;16.42;102084.59;5038536;28;20079;-78
2022/04/18 07:49:35;;;;;;;8.90;4.80;;;;;;;20.56;16.98;102079.59;5028358;28;20522;-79
2022/04/18 07:52:01;;;;;;;7.68;4.15;;;;;;;21.31;16.59;102086.19;5024779;28;20068;-79
2022/04/18 07:54:34;;;;;;;7.55;4.38;;;;;;;21.87;16.07;102079.78;5025567;28;20665;-81
2022/04/18 07:57:01;;;;;;;7.93;3.88;;;;;;;22.53;14.94;102083.97;5031422;28;20051;-79
2022/04/18 07:59:36;;;;;;;9.50;3.95;;;;;;;22.38;15.27;102079.75;5042096;28;20108;-80
2022/04/18 08:02:08;;;;;;;5.22;3.42;;;;;;;22.04;16.06;102071.47;5022808;28;20047;-78
2022/04/18 08:04:58;;;;;;;9.02;4.00;;;;;;;22.39;15.31;102076.16;5042787;28;20059;-79
2022/04/18 08:07:52;;;;;;;6.03;4.70;;;;;;;21.29;16.11;102071.31;5043113;28;20064;-79
2022/04/18 08:10:18;;;;;;;7.22;3.80;;;;;;;21.79;15.68;102071.50;5043528;28;20184;-77
2022/04/18 08:12:44;;;;;;;7.60;4.50;;;;;;;22.37;15.31;102072.75;5058121;28;20132;-78
2022/04/18 08:15:28;;;;;;;5.43;3.38;;;;;;;22.90;15.22;102065.34;5042993;28;20544;-78
2022/04/18 08:17:54;;;;;;;5.95;3.53;;;;;;;23.65;15.16;102057.97;5022902;28;20045;-78
2022/04/18 08:20:37;;;;;;;4.75;3.42;;;;;;;23.62;14.34;102054.56;5027712;28;20077;-78
2022/04/18 08:23:02;;;;;;;6.13;3.67;;;;;;;23.10;14.33;102049.69;5041687;28;20036;-78
2022/04/18 08:26:04;;;;;;;6.47;4.27;;;;;;;22.93;14.43;102056.25;5047712;28;20033;-77
2022/04/18 08:28:59;;;;;;;7.43;3.08;;;;;;;21.93;15.09;102053.59;5043891;28;20279;-79
2022/04/18 08:31:25;;;;;;;8.88;3.95;;;;;;;21.50;15.45;102058.38;5027258;28;20826;-78
2022/04/18 08:34:02;;;;;;;5.75;3.20;;;;;;;22.28;16.01;102058.28;5040972;28;20092;-77
2022/04/18 08:36:29;;;;;;;6.28;2.58;;;;;;;22.58;15.46;102044.56;5029837;28;20067;-82
2022/04/18 08:38:56;;;;;;;5.90;3.13;;;;;;;21.33;16.05;102048.84;5042033;28;20041;-77
2022/04/18 08:41:38;;;;;;;5.93;3.33;;;;;;;21.79;16.47;102052.88;5046181;28;20103;-79
2022/04/18 08:44:09;;;;;;;6.68;2.92;;;;;;;21.91;15.72;102052.00;5035240;28;20053;-78
2022/04/18 08:46:35;;;;;;;4.82;3.28;;;;;;;21.27;16.48;102050.13;5059953;28;20039;-82
2022/04/18 08:54:32;;;;;;;6.53;2.85;;;;;;;20.20;17.01;102049.06;5056254;28;20163;-77
2022/04/18 08:56:58;;;;;;;8.90;3.10;;;;;;;19.97;17.94;102046.03;5036769;28;20151;-79
2022/04/18 08:59:24;;;;;;;5.85;2.85;;;;;;;19.91;17.55;102038.44;5024289;28;20645;-80
2022/04/18 09:01:52;;;;;;;5.90;2.88;;;;;;;20.23;17.44;102048.91;5011072;28;20029;-78
2022/04/18 09:04:36;;;;;;;6.70;3.00;;;;;;;19.47;18.06;102050.75;5069339;28;20052;-76
2022/04/18 09:07:12;;;;;;;5.90;2.53;;;;;;;18.70;18.25;102051.66;5035394;28;20065;-77
2022/04/18 09:09:42;;;;;;;3.38;2.38;;;;;;;18.23;18.88;102056.00;5041625;28;20091;-76
2022/04/18 09:12:18;;;;;;;5.45;2.45;;;;;;;17.18;19.93;102055.19;5021594;28;20126;-77
2022/04/18 09:14:50;;;;;;;4.63;1.83;;;;;;;16.87;20.65;102053.19;5053488;28;20840;-77
2022/04/18 09:17:32;;;;;;;5.38;2.75;;;;;;;16.80;21.22;102055.25;5020605;28;20047;-78
2022/04/18 09:20:16;;;;;;;8.60;2.58;;;;;;;16.42;20.77;102055.22;5038763;28;20041;-77
2022/04/18 09:22:48;;;;;;;6.90;2.83;;;;;;;16.26;21.89;102056.00;5053681;28;20076;-79
2022/04/18 09:25:20;;;;;;;6.80;2.60;;;;;;;16.46;21.59;102047.16;5025228;28;20036;-77
2022/04/18 09:27:49;;;;;;;6.63;2.28;;;;;;;16.60;21.18;102050.03;5029157;28;20047;-78
2022/04/18 09:30:18;;;;;;;;;;;;;;;16.85;21.28;102046.25;5022197;28;20548;-78
2022/04/18 09:33:14;;;;;;;7.90;2.40;;;;;;;17.13;20.77;102045.75;5037839;28;19927;-78
2022/04/18 09:36:15;;;;;;;3.83;2.25;;;;;;;17.56;21.05;102043.63;5037876;28;20043;-79
2022/04/18 09:38:49;;;;;;;5.55;2.45;;;;;;;16.96;20.90;102051.88;5026741;28;20150;-78
2022/04/18 09:41:36;;;;;;;3.88;2.15;;;;;;;17.23;20.42;102042.59;5055432;28;20025;-78
2022/04/18 09:44:12;;;;;;;2.75;1.17;;;;;;;17.84;20.52;102035.13;5025375;28;20098;-77
2022/04/18 09:46:45;;;;;;;5.78;2.67;;;;;;;17.54;20.50;102032.28;5036410;28;20033;-79
2022/04/18 09:49:18;;;;;;;4.13;2.10;;;;;;;17.96;19.27;102033.59;5038269;28;20036;-77
2022/04/18 09:51:51;;;;;;;4.70;2.42;;;;;;;17.57;19.85;102035.63;5033616;28;20824;-77
2022/04/18 09:54:20;;;;;;;5.38;1.75;;;;;;;16.85;20.71;102041.81;5053815;28;20029;-79
2022/04/18 09:56:50;;;;;;;4.05;2.30;;;;;;;17.32;20.57;102021.94;5051377;28;20047;-76
2022/04/18 09:59:16;;;;;;;6.22;2.95;;;;;;;16.99;20.53;102030.59;5028699;28;20056;-78
2022/04/18 10:01:44;;;;;;;6.30;2.35;;;;;;;16.97;20.83;102024.53;5036689;28;20041;-77
2022/04/18 10:04:11;;;;;;;4.55;2.88;;;;;;;17.59;20.60;102015.25;5037788;28;20565;-80
2022/04/18 10:06:40;;;;;;;4.97;2.60;;;;;;;17.88;20.41;102015.50;5054553;28;20534;-78
2022/04/18 10:09:06;;;;;;;4.05;2.22;;;;;;;17.90;20.14;102008.34;5034523;28;20655;-78
2022/04/18 10:11:32;;;;;;;3.55;2.28;;;;;;;17.46;20.03;102008.84;5053349;28;20056;-78
2022/04/18 10:13:58;;;;;;;3.88;2.40;;;;;;;17.18;20.88;102004.97;5018345;28;20037;-75
2022/04/18 10:16:23;;;;;;;7.57;2.28;;;;;;;17.41;20.03;102005.59;5038087;28;20371;-78
2022/04/18 10:18:59;;;;;;;4.38;1.80;;;;;;;17.12;20.08;102010.56;5016863;28;20568;-78
2022/04/18 10:21:31;;;;;;;6.55;3.10;;;;;;;17.43;20.50;102003.72;5037902;28;20033;-78
2022/04/18 10:24:28;;;;;;;3.33;2.13;;;;;;;17.35;20.27;102001.47;5035495;28;21264;-75
2022/04/18 10:27:14;;;;;;;4.38;1.83;;;;;;;17.55;21.25;101987.25;5049893;28;20029;-81
2022/04/18 10:29:44;;;;;;;3.08;1.50;;;;;;;18.22;19.85;101989.91;5022568;28;20041;-79
2022/04/18 10:32:10;;;;;;;3.88;1.98;;;;;;;17.75;19.37;101993.31;5051268;28;20195;-77
2022/04/18 10:34:39;;;;;;;3.17;1.88;;;;;;;17.17;18.90;101987.41;5036471;28;20081;-78
2022/04/18 10:37:05;;;;;;;4.07;2.00;;;;;;;17.41;19.82;101989.75;5050459;28;20507;-78
2022/04/18 10:39:35;;;;;;;4.75;1.63;;;;;;;16.99;21.07;101988.34;5020075;28;20104;-78
2022/04/18 10:42:22;;;;;;;4.32;2.10;;;;;;;17.33;20.70;101982.19;5024139;28;20044;-77
2022/04/18 10:45:01;;;;;;;5.13;2.42;;;;;;;17.39;20.65;101978.41;5024038;28;20025;-77
2022/04/18 10:47:26;;;;;;;4.07;1.83;;;;;;;17.42;20.64;101970.28;5052024;28;20037;-77
2022/04/18 10:50:14;;;;;;;3.90;1.77;;;;;;;17.83;20.48;101975.25;5019450;28;20040;-76
2022/04/18 10:52:40;;;;;;;4.93;1.83;;;;;;;17.64;19.92;101970.91;5051784;28;20058;-79
2022/04/18 10:55:06;;;;;;;3.42;1.65;;;;;;;17.37;19.84;101969.69;5018234;28;20246;-77
2022/04/18 10:57:32;;;;;;;3.95;2.78;;;;;;;17.38;20.53;101964.34;5021033;28;20041;-77
2022/04/18 10:59:58;;;;;;;3.15;1.77;;;;;;;17.57;20.04;101964.25;5035197;28;20032;-78
2022/04/18 11:02:38;;;;;;;6.40;2.45;;;;;;;17.53;20.17;101964.50;5035538;28;20052;-78
2022/04/18 11:05:05;;;;;;;4.88;2.25;;;;;;;17.63;20.79;101963.94;5026577;28;20024;-80
2022/04/18 11:07:38;;;;;;;4.03;2.25;;;;;;;17.90;20.42;101959.91;5021887;28;20186;-77
2022/04/18 11:10:25;;;;;;;7.93;2.83;;;;;;;18.08;19.78;101958.06;5051430;28;20052;-78
2022/04/18 11:12:57;;;;;;;4.55;1.55;;;;;;;18.30;18.84;101958.59;5034413;28;20231;-77
2022/04/18 11:15:23;;;;;;;4.35;2.03;;;;;;;18.77;19.75;101962.13;5036323;28;20493;-79
2022/04/18 11:17:48;;;;;;;3.08;2.00;;;;;;;19.41;18.52;101962.78;5048873;28;20668;-78
2022/04/18 11:20:33;;;;;;;6.93;2.22;;;;;;;18.55;20.18;101957.22;5020105;28;20063;-78
2022/04/18 11:23:21;;;;;;;4.80;2.03;;;;;;;18.78;19.04;101948.78;5056008;28;20052;-79
2022/04/18 11:25:54;;;;;;;3.10;2.45;;;;;;;18.71;18.56;101952.72;5041265;28;20032;-79
2022/04/18 11:28:20;;;;;;;6.65;1.92;;;;;;;18.64;19.50;101951.38;5060629;28;20040;-77
2022/04/18 11:30:46;;;;;;;4.90;2.25;;;;;;;18.43;18.10;101956.09;5034613;28;20037;-79
2022/04/18 11:33:11;;;;;;;3.75;1.80;;;;;;;18.58;18.43;101946.44;5062215;28;20466;-78
2022/04/18 11:35:37;;;;;;;3.85;1.67;;;;;;;19.12;18.38;101941.53;5062554;28;20140;-79
2022/04/18 11:38:10;;;;;;;6.53;2.38;;;;;;;18.45;19.03;101939.22;5042463;28;20044;-78
2022/04/18 11:40:40;;;;;;;6.13;1.95;;;;;;;18.18;19.62;101946.00;5043445;28;20030;-77
2022/04/18 11:43:13;;;;;;;4.00;1.95;;;;;;;18.03;18.62;101939.78;5057322;28;20112;-78
2022/04/18 11:45:39;;;;;;;3.13;1.75;;;;;;;18.52;18.80;101936.19;5024993;28;20045;-79
2022/04/18 11:48:06;;;;;;;6.68;2.17;;;;;;;18.45;18.62;101938.34;5056868;28;20073;-78
2022/04/18 11:50:36;;;;;;;5.47;2.00;;;;;;;18.56;18.95;101938.56;5058477;28;20032;-78
2022/04/18 11:53:06;;;;;;;3.97;1.67;;;;;;;18.55;17.91;101931.59;5039691;28;20873;-79